sensor_id;sensor_type;location;lat;lon;timestamp;pressure;altitude;pressure_sealevel;temperature;humidity
5484;BME280;2764;48.794;8.326;2023-02-22T00:00:22;76937.44;;;-140.34;77.53
5484;BME280;2764;48.794;8.326;2023-02-22T00:01:28;76917.31;;;-140.34;76.72
5484;BME280;2764;48.794;8.326;2023-02-22T00:02:36;76921.34;;;-140.34;76.80
5484;BME280;2764;48.794;8.326;2023-02-22T00:03:38;76917.31;;;-140.34;76.31
5484;BME280;2764;48.794;8.326;2023-02-22T00:04:40;76917.31;;;-140.34;76.35
5484;BME280;2764;48.794;8.326;2023-02-22T00:05:43;76919.34;;;-140.34;76.42
5484;BME280;2764;48.794;8.326;2023-02-22T00:06:47;76923.34;;;-140.34;76.33
5484;BME280;2764;48.794;8.326;2023-02-22T00:07:50;76927.38;;;-140.34;76.34
5484;BME280;2764;48.794;8.326;2023-02-22T00:08:52;76935.41;;;-140.34;76.91
5484;BME280;2764;48.794;8.326;2023-02-22T00:09:55;76933.41;;;-140.34;76.40
5484;BME280;2764;48.794;8.326;2023-02-22T00:11:02;76941.44;;;-140.34;76.54
5484;BME280;2764;48.794;8.326;2023-02-22T00:12:04;76941.44;;;-140.34;76.77
5484;BME280;2764;48.794;8.326;2023-02-22T00:13:08;76947.47;;;-140.34;76.98
5484;BME280;2764;48.794;8.326;2023-02-22T00:14:11;76951.50;;;-140.34;77.25
5484;BME280;2764;48.794;8.326;2023-02-22T00:15:14;76941.44;;;-140.34;77.05
5484;BME280;2764;48.794;8.326;2023-02-22T00:16:19;76953.50;;;-140.34;76.98
5484;BME280;2764;48.794;8.326;2023-02-22T00:17:21;76957.53;;;-140.34;77.39
5484;BME280;2764;48.794;8.326;2023-02-22T00:18:23;76971.63;;;-140.34;77.65
5484;BME280;2764;48.794;8.326;2023-02-22T00:19:28;76987.69;;;-140.34;78.07
5484;BME280;2764;48.794;8.326;2023-02-22T00:20:31;76981.66;;;-140.34;77.93
5484;BME280;2764;48.794;8.326;2023-02-22T00:21:33;76987.69;;;-140.34;78.39
5484;BME280;2764;48.794;8.326;2023-02-22T00:22:35;76997.75;;;-140.34;78.81
5484;BME280;2764;48.794;8.326;2023-02-22T00:23:43;77011.84;;;-140.34;79.07
5484;BME280;2764;48.794;8.326;2023-02-22T00:24:48;77017.88;;;-140.34;79.77
5484;BME280;2764;48.794;8.326;2023-02-22T00:25:50;77015.84;;;-140.34;79.75
5484;BME280;2764;48.794;8.326;2023-02-22T00:26:54;77013.84;;;-140.34;79.87
5484;BME280;2764;48.794;8.326;2023-02-22T00:27:56;77021.88;;;-140.34;80.05
5484;BME280;2764;48.794;8.326;2023-02-22T00:28:57;77033.94;;;-140.34;80.28
5484;BME280;2764;48.794;8.326;2023-02-22T00:29:59;77037.97;;;-140.34;80.90
5484;BME280;2764;48.794;8.326;2023-02-22T00:31:02;77046.00;;;-140.34;81.45
5484;BME280;2764;48.794;8.326;2023-02-22T00:32:05;77048.03;;;-140.34;81.59
5484;BME280;2764;48.794;8.326;2023-02-22T00:33:07;77062.09;;;-140.34;81.63
5484;BME280;2764;48.794;8.326;2023-02-22T00:34:09;77070.16;;;-140.34;82.78
5484;BME280;2764;48.794;8.326;2023-02-22T00:35:13;77078.19;;;-140.34;82.65
5484;BME280;2764;48.794;8.326;2023-02-22T00:36:18;77080.19;;;-140.34;83.02
5484;BME280;2764;48.794;8.326;2023-02-22T00:37:20;77086.22;;;-140.34;83.68
5484;BME280;2764;48.794;8.326;2023-02-22T00:38:23;77088.25;;;-140.34;83.78
5484;BME280;2764;48.794;8.326;2023-02-22T00:39:25;77094.28;;;-140.34;84.05
5484;BME280;2764;48.794;8.326;2023-02-22T00:40:29;77104.34;;;-140.34;84.04
5484;BME280;2764;48.794;8.326;2023-02-22T00:41:31;77102.31;;;-140.34;84.25
5484;BME280;2764;48.794;8.326;2023-02-22T00:42:33;77096.28;;;-140.34;84.57
5484;BME280;2764;48.794;8.326;2023-02-22T00:43:35;77096.28;;;-140.34;84.34
5484;BME280;2764;48.794;8.326;2023-02-22T00:44:36;77098.31;;;-140.34;84.71
5484;BME280;2764;48.794;8.326;2023-02-22T00:45:38;77102.31;;;-140.34;84.78
5484;BME280;2764;48.794;8.326;2023-02-22T00:46:40;77118.41;;;-140.34;84.74
5484;BME280;2764;48.794;8.326;2023-02-22T00:47:42;77120.41;;;-140.34;84.97
5484;BME280;2764;48.794;8.326;2023-02-22T00:48:43;77126.47;;;-140.34;85.82
5484;BME280;2764;48.794;8.326;2023-02-22T00:49:45;77106.34;;;-140.34;85.77
5484;BME280;2764;48.794;8.326;2023-02-22T00:50:47;77092.28;;;-140.34;85.04
5484;BME280;2764;48.794;8.326;2023-02-22T00:51:49;77098.31;;;-140.34;85.07
5484;BME280;2764;48.794;8.326;2023-02-22T00:52:51;77104.34;;;-140.34;85.08
5484;BME280;2764;48.794;8.326;2023-02-22T00:53:53;77122.44;;;-140.34;85.04
5484;BME280;2764;48.794;8.326;2023-02-22T00:54:55;77122.44;;;-140.34;85.64
5484;BME280;2764;48.794;8.326;2023-02-22T00:55:58;77122.44;;;-140.34;85.68
5484;BME280;2764;48.794;8.326;2023-02-22T00:56:59;77134.50;;;-140.34;86.58
5484;BME280;2764;48.794;8.326;2023-02-22T00:58:02;77144.56;;;-140.34;87.46
5484;BME280;2764;48.794;8.326;2023-02-22T00:59:04;77146.56;;;-140.34;87.75
5484;BME280;2764;48.794;8.326;2023-02-22T01:00:08;77154.59;;;-140.34;87.85
5484;BME280;2764;48.794;8.326;2023-02-22T01:01:13;77162.66;;;-140.34;88.01
5484;BME280;2764;48.794;8.326;2023-02-22T01:02:16;77170.69;;;-140.34;88.70
5484;BME280;2764;48.794;8.326;2023-02-22T01:03:19;77170.69;;;-140.34;88.65
5484;BME280;2764;48.794;8.326;2023-02-22T01:04:22;77184.78;;;-140.34;88.77
5484;BME280;2764;48.794;8.326;2023-02-22T01:05:26;77192.81;;;-140.34;89.38
5484;BME280;2764;48.794;8.326;2023-02-22T01:06:28;77194.81;;;-140.34;90.51
5484;BME280;2764;48.794;8.326;2023-02-22T01:07:29;77202.88;;;-140.34;90.80
5484;BME280;2764;48.794;8.326;2023-02-22T01:08:31;77210.91;;;-140.34;90.69
5484;BME280;2764;48.794;8.326;2023-02-22T01:09:33;77212.94;;;-140.34;91.03
5484;BME280;2764;48.794;8.326;2023-02-22T01:10:36;77210.91;;;-140.34;90.91
5484;BME280;2764;48.794;8.326;2023-02-22T01:11:38;77210.91;;;-140.34;91.64
5484;BME280;2764;48.794;8.326;2023-02-22T01:12:40;77220.97;;;-140.34;91.87
5484;BME280;2764;48.794;8.326;2023-02-22T01:13:42;77218.97;;;-140.34;92.09
5484;BME280;2764;48.794;8.326;2023-02-22T01:14:45;77218.97;;;-140.34;93.18
5484;BME280;2764;48.794;8.326;2023-02-22T01:15:47;77218.97;;;-140.34;92.94
5484;BME280;2764;48.794;8.326;2023-02-22T01:16:51;77227.00;;;-140.34;92.76
5484;BME280;2764;48.794;8.326;2023-02-22T01:17:53;77229.00;;;-140.34;92.29
5484;BME280;2764;48.794;8.326;2023-02-22T01:18:55;77231.03;;;-140.34;92.71
5484;BME280;2764;48.794;8.326;2023-02-22T01:19:57;77231.03;;;-140.34;93.36
5484;BME280;2764;48.794;8.326;2023-02-22T01:20:59;77239.06;;;-140.34;93.89
5484;BME280;2764;48.794;8.326;2023-02-22T01:22:02;77243.09;;;-140.34;94.10
5484;BME280;2764;48.794;8.326;2023-02-22T01:23:06;77251.13;;;-140.34;94.01
5484;BME280;2764;48.794;8.326;2023-02-22T01:24:08;77251.13;;;-140.34;94.42
5484;BME280;2764;48.794;8.326;2023-02-22T01:25:14;77247.13;;;-140.34;95.13
5484;BME280;2764;48.794;8.326;2023-02-22T01:26:16;77241.09;;;-140.34;94.89
5484;BME280;2764;48.794;8.326;2023-02-22T01:27:18;77245.09;;;-140.34;95.23
5484;BME280;2764;48.794;8.326;2023-02-22T01:28:20;77241.09;;;-140.34;95.60
5484;BME280;2764;48.794;8.326;2023-02-22T01:29:22;77245.09;;;-140.34;95.65
5484;BME280;2764;48.794;8.326;2023-02-22T01:30:27;77239.06;;;-140.34;95.30
5484;BME280;2764;48.794;8.326;2023-02-22T01:31:29;77229.00;;;-140.34;95.42
5484;BME280;2764;48.794;8.326;2023-02-22T01:32:31;77198.84;;;-140.34;95.02
5484;BME280;2764;48.794;8.326;2023-02-22T01:33:33;77170.69;;;-140.34;93.38
5484;BME280;2764;48.794;8.326;2023-02-22T01:34:35;77158.63;;;-140.34;92.84
5484;BME280;2764;48.794;8.326;2023-02-22T01:35:39;77160.66;;;-140.34;92.05
5484;BME280;2764;48.794;8.326;2023-02-22T01:36:41;77160.66;;;-140.34;91.50
5484;BME280;2764;48.794;8.326;2023-02-22T01:37:43;77164.66;;;-140.34;91.63
5484;BME280;2764;48.794;8.326;2023-02-22T01:38:45;77160.66;;;-140.34;91.40
5484;BME280;2764;48.794;8.326;2023-02-22T01:39:47;77168.69;;;-140.34;91.15
5484;BME280;2764;48.794;8.326;2023-02-22T01:40:50;77178.75;;;-140.34;90.71
5484;BME280;2764;48.794;8.326;2023-02-22T01:41:53;77188.78;;;-140.34;90.97
5484;BME280;2764;48.794;8.326;2023-02-22T01:42:57;77188.78;;;-140.34;91.03
5484;BME280;2764;48.794;8.326;2023-02-22T01:46:38;77222.97;;;-140.34;93.07
5484;BME280;2764;48.794;8.326;2023-02-22T01:47:41;77218.97;;;-140.34;93.33
5484;BME280;2764;48.794;8.326;2023-02-22T01:48:58;77212.94;;;-140.34;93.90
5484;BME280;2764;48.794;8.326;2023-02-22T01:50:01;77216.94;;;-140.34;94.42
5484;BME280;2764;48.794;8.326;2023-02-22T01:51:10;77214.94;;;-140.34;94.24
5484;BME280;2764;48.794;8.326;2023-02-22T01:52:16;77214.94;;;-140.34;94.63
5484;BME280;2764;48.794;8.326;2023-02-22T01:53:22;77220.97;;;-140.34;94.74
5484;BME280;2764;48.794;8.326;2023-02-22T01:54:33;77210.91;;;-140.34;94.92
5484;BME280;2764;48.794;8.326;2023-02-22T01:55:36;77218.97;;;-140.34;94.47
5484;BME280;2764;48.794;8.326;2023-02-22T01:57:04;77222.97;;;-140.34;94.67
5484;BME280;2764;48.794;8.326;2023-02-22T01:58:08;77229.00;;;-140.34;94.41
5484;BME280;2764;48.794;8.326;2023-02-22T01:59:11;77222.97;;;-140.34;94.98
5484;BME280;2764;48.794;8.326;2023-02-22T02:00:15;77227.00;;;-140.34;94.89
5484;BME280;2764;48.794;8.326;2023-02-22T02:01:21;77222.97;;;-140.34;95.64
5484;BME280;2764;48.794;8.326;2023-02-22T02:02:24;77227.00;;;-140.34;95.15
5484;BME280;2764;48.794;8.326;2023-02-22T02:03:32;77227.00;;;-140.34;95.01
5484;BME280;2764;48.794;8.326;2023-02-22T02:04:35;77239.06;;;-140.34;95.64
5484;BME280;2764;48.794;8.326;2023-02-22T02:05:37;77251.13;;;-140.34;95.56
5484;BME280;2764;48.794;8.326;2023-02-22T02:06:41;77251.13;;;-140.34;95.96
5484;BME280;2764;48.794;8.326;2023-02-22T02:07:43;77253.16;;;-140.34;96.65
5484;BME280;2764;48.794;8.326;2023-02-22T02:09:02;77267.22;;;-140.34;96.94
5484;BME280;2764;48.794;8.326;2023-02-22T02:10:10;77269.25;;;-140.34;96.79
5484;BME280;2764;48.794;8.326;2023-02-22T02:11:18;77255.16;;;-140.34;97.79
5484;BME280;2764;48.794;8.326;2023-02-22T02:12:20;77251.13;;;-140.34;97.61
5484;BME280;2764;48.794;8.326;2023-02-22T02:13:25;77265.22;;;-140.34;97.07
5484;BME280;2764;48.794;8.326;2023-02-22T02:14:27;77251.13;;;-140.34;97.22
5484;BME280;2764;48.794;8.326;2023-02-22T02:15:32;77259.19;;;-140.34;96.71
5484;BME280;2764;48.794;8.326;2023-02-22T02:16:45;77259.19;;;-140.34;96.53
5484;BME280;2764;48.794;8.326;2023-02-22T02:17:49;77271.25;;;-140.34;96.61
5484;BME280;2764;48.794;8.326;2023-02-22T02:18:52;77273.25;;;-140.34;96.78
5484;BME280;2764;48.794;8.326;2023-02-22T02:20:13;77287.34;;;-140.34;96.85
5484;BME280;2764;48.794;8.326;2023-02-22T02:24:56;77291.34;;;-140.34;97.86
5484;BME280;2764;48.794;8.326;2023-02-22T02:25:56;77295.38;;;-140.34;97.97
5484;BME280;2764;48.794;8.326;2023-02-22T02:27:23;77303.41;;;-140.34;98.01
5484;BME280;2764;48.794;8.326;2023-02-22T02:34:45;77321.53;;;-140.34;100.00
5484;BME280;2764;48.794;8.326;2023-02-22T02:36:07;77327.56;;;-140.34;100.00
5484;BME280;2764;48.794;8.326;2023-02-22T02:40:01;77341.63;;;-140.34;100.00
5484;BME280;2764;48.794;8.326;2023-02-22T02:42:28;77357.72;;;-140.34;100.00
5484;BME280;2764;48.794;8.326;2023-02-22T02:43:54;77357.72;;;-140.34;100.00
5484;BME280;2764;48.794;8.326;2023-02-22T02:45:08;77357.72;;;-140.34;100.00
5484;BME280;2764;48.794;8.326;2023-02-22T02:46:22;77359.72;;;-140.34;100.00
5484;BME280;2764;48.794;8.326;2023-02-22T02:47:29;77363.75;;;-140.34;100.00
5484;BME280;2764;48.794;8.326;2023-02-22T02:48:38;77355.72;;;-140.34;100.00
5484;BME280;2764;48.794;8.326;2023-02-22T02:49:50;77355.72;;;-140.34;100.00
5484;BME280;2764;48.794;8.326;2023-02-22T02:50:57;77361.75;;;-140.34;100.00
5484;BME280;2764;48.794;8.326;2023-02-22T02:52:02;77375.81;;;-140.34;100.00
5484;BME280;2764;48.794;8.326;2023-02-22T02:53:07;77379.84;;;-140.34;100.00
5484;BME280;2764;48.794;8.326;2023-02-22T02:54:10;77387.88;;;-140.34;100.00
5484;BME280;2764;48.794;8.326;2023-02-22T02:55:13;77393.91;;;-140.34;100.00
5484;BME280;2764;48.794;8.326;2023-02-22T02:56:16;77393.91;;;-140.34;100.00
5484;BME280;2764;48.794;8.326;2023-02-22T02:57:17;77393.91;;;-140.34;100.00
5484;BME280;2764;48.794;8.326;2023-02-22T02:58:22;77403.97;;;-140.34;100.00
5484;BME280;2764;48.794;8.326;2023-02-22T02:59:25;77397.94;;;-140.34;100.00
5484;BME280;2764;48.794;8.326;2023-02-22T03:00:31;77408.00;;;-140.34;100.00
5484;BME280;2764;48.794;8.326;2023-02-22T03:01:46;77408.00;;;-140.34;100.00
5484;BME280;2764;48.794;8.326;2023-02-22T03:03:00;77418.06;;;-140.34;100.00
5484;BME280;2764;48.794;8.326;2023-02-22T03:04:20;77426.09;;;-140.34;100.00
5484;BME280;2764;48.794;8.326;2023-02-22T03:06:48;77416.03;;;-140.34;100.00
5484;BME280;2764;48.794;8.326;2023-02-22T03:08:19;77420.06;;;-140.34;100.00
5484;BME280;2764;48.794;8.326;2023-02-22T03:09:35;77428.09;;;-140.34;100.00
5484;BME280;2764;48.794;8.326;2023-02-22T03:10:56;77436.16;;;-140.34;100.00
5484;BME280;2764;48.794;8.326;2023-02-22T03:14:47;77456.25;;;-140.34;100.00
5484;BME280;2764;48.794;8.326;2023-02-22T03:16:14;77458.28;;;-140.34;100.00
5484;BME280;2764;48.794;8.326;2023-02-22T03:17:27;77476.38;;;-140.34;100.00
5484;BME280;2764;48.794;8.326;2023-02-22T03:20:12;77476.38;;;-140.34;100.00
5484;BME280;2764;48.794;8.326;2023-02-22T03:22:36;77478.38;;;-140.34;100.00
5484;BME280;2764;48.794;8.326;2023-02-22T03:25:07;77484.41;;;-140.34;100.00
5484;BME280;2764;48.794;8.326;2023-02-22T03:26:14;77490.47;;;-140.34;100.00
5484;BME280;2764;48.794;8.326;2023-02-22T03:27:42;77492.47;;;-140.34;100.00
5484;BME280;2764;48.794;8.326;2023-02-22T03:28:45;77488.44;;;-140.34;100.00
5484;BME280;2764;48.794;8.326;2023-02-22T03:29:50;77494.47;;;-140.34;100.00
5484;BME280;2764;48.794;8.326;2023-02-22T03:31:00;77492.47;;;-140.34;100.00
5484;BME280;2764;48.794;8.326;2023-02-22T03:32:07;77492.47;;;-140.34;100.00
5484;BME280;2764;48.794;8.326;2023-02-22T03:33:35;77490.47;;;-140.34;100.00
5484;BME280;2764;48.794;8.326;2023-02-22T03:34:47;77496.50;;;-140.34;100.00
5484;BME280;2764;48.794;8.326;2023-02-22T03:35:55;77498.50;;;-140.34;100.00
5484;BME280;2764;48.794;8.326;2023-02-22T03:37:04;77498.50;;;-140.34;100.00
5484;BME280;2764;48.794;8.326;2023-02-22T03:38:10;77506.53;;;-140.34;100.00
5484;BME280;2764;48.794;8.326;2023-02-22T03:39:15;77504.53;;;-140.34;100.00
5484;BME280;2764;48.794;8.326;2023-02-22T03:40:24;77496.50;;;-140.34;100.00
5484;BME280;2764;48.794;8.326;2023-02-22T03:41:27;77502.53;;;-140.34;100.00
5484;BME280;2764;48.794;8.326;2023-02-22T03:42:33;77500.50;;;-140.34;100.00
5484;BME280;2764;48.794;8.326;2023-02-22T03:43:46;77510.56;;;-140.34;100.00
5484;BME280;2764;48.794;8.326;2023-02-22T03:44:51;77508.56;;;-140.34;100.00
5484;BME280;2764;48.794;8.326;2023-02-22T03:45:54;77518.59;;;-140.34;100.00
5484;BME280;2764;48.794;8.326;2023-02-22T03:46:58;77522.63;;;-140.34;100.00
5484;BME280;2764;48.794;8.326;2023-02-22T03:48:25;77526.66;;;-140.34;100.00
5484;BME280;2764;48.794;8.326;2023-02-22T03:50:48;77528.66;;;-140.34;100.00
5484;BME280;2764;48.794;8.326;2023-02-22T03:51:52;77530.69;;;-140.34;100.00
5484;BME280;2764;48.794;8.326;2023-02-22T03:52:55;77534.69;;;-140.34;100.00
5484;BME280;2764;48.794;8.326;2023-02-22T03:54:00;77534.69;;;-140.34;100.00
5484;BME280;2764;48.794;8.326;2023-02-22T03:55:03;77540.72;;;-140.34;100.00
5484;BME280;2764;48.794;8.326;2023-02-22T03:56:16;77540.72;;;-140.34;100.00
5484;BME280;2764;48.794;8.326;2023-02-22T03:57:34;77534.69;;;-140.34;100.00
5484;BME280;2764;48.794;8.326;2023-02-22T03:58:39;77540.72;;;-140.34;100.00
5484;BME280;2764;48.794;8.326;2023-02-22T03:59:45;77540.72;;;-140.34;100.00
5484;BME280;2764;48.794;8.326;2023-02-22T04:00:47;77540.72;;;-140.34;100.00
5484;BME280;2764;48.794;8.326;2023-02-22T04:01:54;77542.75;;;-140.34;100.00
5484;BME280;2764;48.794;8.326;2023-02-22T04:02:58;77538.72;;;-140.34;100.00
5484;BME280;2764;48.794;8.326;2023-02-22T04:04:00;77544.75;;;-140.34;100.00
5484;BME280;2764;48.794;8.326;2023-02-22T04:05:02;77550.78;;;-140.34;100.00
5484;BME280;2764;48.794;8.326;2023-02-22T04:06:05;77548.78;;;-140.34;100.00
5484;BME280;2764;48.794;8.326;2023-02-22T04:07:06;77546.75;;;-140.34;100.00
5484;BME280;2764;48.794;8.326;2023-02-22T04:08:11;77544.75;;;-140.34;100.00
5484;BME280;2764;48.794;8.326;2023-02-22T04:09:13;77548.78;;;-140.34;100.00
5484;BME280;2764;48.794;8.326;2023-02-22T04:10:15;77544.75;;;-140.34;100.00
5484;BME280;2764;48.794;8.326;2023-02-22T04:11:17;77552.81;;;-140.34;100.00
5484;BME280;2764;48.794;8.326;2023-02-22T04:12:19;77556.81;;;-140.34;100.00
5484;BME280;2764;48.794;8.326;2023-02-22T04:13:21;77556.81;;;-140.34;100.00
5484;BME280;2764;48.794;8.326;2023-02-22T04:14:23;77556.81;;;-140.34;100.00
5484;BME280;2764;48.794;8.326;2023-02-22T04:15:25;77544.75;;;-140.34;100.00
5484;BME280;2764;48.794;8.326;2023-02-22T04:16:27;77544.75;;;-140.34;100.00
5484;BME280;2764;48.794;8.326;2023-02-22T04:17:28;77544.75;;;-140.34;100.00
5484;BME280;2764;48.794;8.326;2023-02-22T04:18:31;77544.75;;;-140.34;100.00
5484;BME280;2764;48.794;8.326;2023-02-22T04:19:33;77546.75;;;-140.34;100.00
5484;BME280;2764;48.794;8.326;2023-02-22T04:20:35;77548.78;;;-140.34;100.00
5484;BME280;2764;48.794;8.326;2023-02-22T04:21:36;77552.81;;;-140.34;100.00
5484;BME280;2764;48.794;8.326;2023-02-22T04:22:39;77554.81;;;-140.34;100.00
5484;BME280;2764;48.794;8.326;2023-02-22T04:23:42;77554.81;;;-140.34;100.00
5484;BME280;2764;48.794;8.326;2023-02-22T04:24:43;77556.81;;;-140.34;100.00
5484;BME280;2764;48.794;8.326;2023-02-22T04:25:45;77558.84;;;-140.34;100.00
5484;BME280;2764;48.794;8.326;2023-02-22T04:26:47;77560.84;;;-140.34;100.00
5484;BME280;2764;48.794;8.326;2023-02-22T04:27:49;77562.84;;;-140.34;100.00
5484;BME280;2764;48.794;8.326;2023-02-22T04:28:51;77564.88;;;-140.34;100.00
5484;BME280;2764;48.794;8.326;2023-02-22T04:29:53;77564.88;;;-140.34;100.00
5484;BME280;2764;48.794;8.326;2023-02-22T04:30:55;77568.88;;;-140.34;100.00
5484;BME280;2764;48.794;8.326;2023-02-22T04:31:57;77570.91;;;-140.34;100.00
5484;BME280;2764;48.794;8.326;2023-02-22T04:32:58;77568.88;;;-140.34;100.00
5484;BME280;2764;48.794;8.326;2023-02-22T04:34:00;77574.94;;;-140.34;100.00
5484;BME280;2764;48.794;8.326;2023-02-22T04:35:04;77574.94;;;-140.34;100.00
5484;BME280;2764;48.794;8.326;2023-02-22T04:36:06;77578.94;;;-140.34;100.00
5484;BME280;2764;48.794;8.326;2023-02-22T04:37:08;77617.16;;;-140.34;100.00
5484;BME280;2764;48.794;8.326;2023-02-22T04:38:10;77570.91;;;-140.34;100.00
5484;BME280;2764;48.794;8.326;2023-02-22T04:39:12;77570.91;;;-140.34;100.00
5484;BME280;2764;48.794;8.326;2023-02-22T04:40:15;77580.97;;;-140.34;100.00
5484;BME280;2764;48.794;8.326;2023-02-22T04:41:18;77580.97;;;-140.34;100.00
5484;BME280;2764;48.794;8.326;2023-02-22T04:42:20;77584.97;;;-140.34;100.00
5484;BME280;2764;48.794;8.326;2023-02-22T04:43:22;77587.00;;;-140.34;100.00
5484;BME280;2764;48.794;8.326;2023-02-22T04:44:23;77584.97;;;-140.34;100.00
5484;BME280;2764;48.794;8.326;2023-02-22T04:45:26;77584.97;;;-140.34;100.00
5484;BME280;2764;48.794;8.326;2023-02-22T04:46:27;77587.00;;;-140.34;100.00
5484;BME280;2764;48.794;8.326;2023-02-22T04:47:29;77593.03;;;-140.34;100.00
5484;BME280;2764;48.794;8.326;2023-02-22T04:48:31;77593.03;;;-140.34;100.00
5484;BME280;2764;48.794;8.326;2023-02-22T04:49:33;77605.09;;;-140.34;100.00
5484;BME280;2764;48.794;8.326;2023-02-22T04:50:34;77603.09;;;-140.34;100.00
5484;BME280;2764;48.794;8.326;2023-02-22T04:51:36;77605.09;;;-140.34;100.00
5484;BME280;2764;48.794;8.326;2023-02-22T04:52:38;77609.13;;;-140.34;100.00
5484;BME280;2764;48.794;8.326;2023-02-22T04:53:42;77607.09;;;-140.34;100.00
5484;BME280;2764;48.794;8.326;2023-02-22T04:54:43;77609.13;;;-140.34;100.00
5484;BME280;2764;48.794;8.326;2023-02-22T04:55:46;77611.13;;;-140.34;100.00
5484;BME280;2764;48.794;8.326;2023-02-22T04:56:48;77611.13;;;-140.34;100.00
5484;BME280;2764;48.794;8.326;2023-02-22T04:57:49;77617.16;;;-140.34;100.00
5484;BME280;2764;48.794;8.326;2023-02-22T04:58:51;77609.13;;;-140.34;100.00
5484;BME280;2764;48.794;8.326;2023-02-22T04:59:53;77617.16;;;-140.34;100.00
5484;BME280;2764;48.794;8.326;2023-02-22T05:00:55;77615.16;;;-140.34;100.00
5484;BME280;2764;48.794;8.326;2023-02-22T05:01:56;77613.13;;;-140.34;100.00
5484;BME280;2764;48.794;8.326;2023-02-22T05:02:58;77609.13;;;-140.34;100.00
5484;BME280;2764;48.794;8.326;2023-02-22T05:04:06;77615.16;;;-140.34;100.00
5484;BME280;2764;48.794;8.326;2023-02-22T05:05:08;77605.09;;;-140.34;100.00
5484;BME280;2764;48.794;8.326;2023-02-22T05:06:10;77617.16;;;-140.34;100.00
5484;BME280;2764;48.794;8.326;2023-02-22T05:07:15;77615.16;;;-140.34;100.00
5484;BME280;2764;48.794;8.326;2023-02-22T05:08:18;77621.19;;;-140.34;100.00
5484;BME280;2764;48.794;8.326;2023-02-22T05:09:20;77619.16;;;-140.34;100.00
5484;BME280;2764;48.794;8.326;2023-02-22T05:10:21;77621.19;;;-140.34;100.00
5484;BME280;2764;48.794;8.326;2023-02-22T05:11:23;77625.19;;;-140.34;100.00
5484;BME280;2764;48.794;8.326;2023-02-22T05:12:26;77623.19;;;-140.34;100.00
5484;BME280;2764;48.794;8.326;2023-02-22T05:13:28;77621.19;;;-140.34;100.00
5484;BME280;2764;48.794;8.326;2023-02-22T05:14:29;77621.19;;;-140.34;100.00
5484;BME280;2764;48.794;8.326;2023-02-22T05:15:31;77621.19;;;-140.34;100.00
5484;BME280;2764;48.794;8.326;2023-02-22T05:16:33;77627.22;;;-140.34;100.00
5484;BME280;2764;48.794;8.326;2023-02-22T05:17:35;77621.19;;;-140.34;100.00
5484;BME280;2764;48.794;8.326;2023-02-22T05:18:37;77619.16;;;-140.34;100.00
5484;BME280;2764;48.794;8.326;2023-02-22T05:19:38;77621.19;;;-140.34;100.00
5484;BME280;2764;48.794;8.326;2023-02-22T05:20:41;77625.19;;;-140.34;100.00
5484;BME280;2764;48.794;8.326;2023-02-22T05:21:43;77629.22;;;-140.34;100.00
5484;BME280;2764;48.794;8.326;2023-02-22T05:22:45;77631.25;;;-140.34;100.00
5484;BME280;2764;48.794;8.326;2023-02-22T05:23:46;77631.25;;;-140.34;100.00
5484;BME280;2764;48.794;8.326;2023-02-22T05:24:48;77635.25;;;-140.34;100.00
5484;BME280;2764;48.794;8.326;2023-02-22T05:25:52;77633.25;;;-140.34;100.00
5484;BME280;2764;48.794;8.326;2023-02-22T05:26:54;77637.28;;;-140.34;100.00
5484;BME280;2764;48.794;8.326;2023-02-22T05:28:01;77633.25;;;-140.34;100.00
5484;BME280;2764;48.794;8.326;2023-02-22T05:29:03;77637.28;;;-140.34;100.00
5484;BME280;2764;48.794;8.326;2023-02-22T05:30:05;77641.28;;;-140.34;100.00
5484;BME280;2764;48.794;8.326;2023-02-22T05:31:09;77641.28;;;-140.34;100.00
5484;BME280;2764;48.794;8.326;2023-02-22T05:32:11;77649.34;;;-140.34;100.00
5484;BME280;2764;48.794;8.326;2023-02-22T05:33:13;77657.38;;;-140.34;100.00
5484;BME280;2764;48.794;8.326;2023-02-22T05:34:15;77657.38;;;-140.34;100.00
5484;BME280;2764;48.794;8.326;2023-02-22T05:35:18;77665.44;;;-140.34;100.00
5484;BME280;2764;48.794;8.326;2023-02-22T05:36:19;77665.44;;;-140.34;100.00
5484;BME280;2764;48.794;8.326;2023-02-22T05:37:21;77667.44;;;-140.34;100.00
5484;BME280;2764;48.794;8.326;2023-02-22T05:38:23;77669.44;;;-140.34;100.00
5484;BME280;2764;48.794;8.326;2023-02-22T05:39:25;77673.47;;;-140.34;100.00
5484;BME280;2764;48.794;8.326;2023-02-22T05:40:27;77669.44;;;-140.34;100.00
5484;BME280;2764;48.794;8.326;2023-02-22T05:41:29;77671.47;;;-140.34;100.00
5484;BME280;2764;48.794;8.326;2023-02-22T05:42:30;77673.47;;;-140.34;100.00
5484;BME280;2764;48.794;8.326;2023-02-22T05:43:32;77675.47;;;-140.34;100.00
5484;BME280;2764;48.794;8.326;2023-02-22T05:44:34;77673.47;;;-140.34;100.00
5484;BME280;2764;48.794;8.326;2023-02-22T05:45:35;77669.44;;;-140.34;100.00
5484;BME280;2764;48.794;8.326;2023-02-22T05:46:37;77675.47;;;-140.34;100.00
5484;BME280;2764;48.794;8.326;2023-02-22T05:47:40;77673.47;;;-140.34;100.00
5484;BME280;2764;48.794;8.326;2023-02-22T05:48:42;77673.47;;;-140.34;100.00
5484;BME280;2764;48.794;8.326;2023-02-22T05:49:43;77673.47;;;-140.34;100.00
5484;BME280;2764;48.794;8.326;2023-02-22T05:50:45;77677.50;;;-140.34;100.00
5484;BME280;2764;48.794;8.326;2023-02-22T05:51:47;77669.44;;;-140.34;100.00
5484;BME280;2764;48.794;8.326;2023-02-22T05:52:49;77671.47;;;-140.34;100.00
5484;BME280;2764;48.794;8.326;2023-02-22T05:53:51;77673.47;;;-140.34;100.00
5484;BME280;2764;48.794;8.326;2023-02-22T05:54:53;77679.50;;;-140.34;100.00
5484;BME280;2764;48.794;8.326;2023-02-22T05:55:55;77671.47;;;-140.34;100.00
5484;BME280;2764;48.794;8.326;2023-02-22T05:56:56;77667.44;;;-140.34;100.00
5484;BME280;2764;48.794;8.326;2023-02-22T05:57:58;77665.44;;;-140.34;100.00
5484;BME280;2764;48.794;8.326;2023-02-22T05:59:02;77659.41;;;-140.34;100.00
5484;BME280;2764;48.794;8.326;2023-02-22T06:00:05;77663.41;;;-140.34;100.00
5484;BME280;2764;48.794;8.326;2023-02-22T06:01:07;77665.44;;;-140.34;100.00
5484;BME280;2764;48.794;8.326;2023-02-22T06:02:09;77669.44;;;-140.34;100.00
5484;BME280;2764;48.794;8.326;2023-02-22T06:03:11;77665.44;;;-140.34;100.00
5484;BME280;2764;48.794;8.326;2023-02-22T06:04:13;77671.47;;;-140.34;100.00
5484;BME280;2764;48.794;8.326;2023-02-22T06:05:15;77673.47;;;-140.34;100.00